Time;durP1;ratioP1;P1;durP2;ratioP2;P2;SDS_P1;SDS_P2;PMS_P1;PMS_P2;Temp;Humidity;BMP_temperature;BMP_pressure;BME280_temperature;BME280_humidity;BME280_pressure;Samples;Min_cycle;Max_cycle;Signal;HPM_P1;HPM_P2
2022/06/17 00:02:05;;;;;;;;;;;;;;;;;;4973910;28;19989;-87
2022/06/17 00:04:31;;;;;;;;;;;;;;;;;;4982421;28;19922;-87
2022/06/17 00:06:57;;;;;;;;;;;;;;;;;;4984541;28;19997;-87
2022/06/17 00:09:23;;;;;;;;;;;;;;;;;;4983959;28;19916;-87
2022/06/17 00:11:48;;;;;;;;;;;;;;;;;;4979531;28;19972;-87
2022/06/17 00:14:14;;;;;;;;;;;;;;;;;;4972665;28;19997;-87
2022/06/17 00:16:40;;;;;;;;;;;;;;;;;;4970311;28;20013;-87
2022/06/17 00:19:06;;;;;;;;;;;;;;;;;;4986221;28;19955;-87
2022/06/17 00:21:32;;;;;;;;;;;;;;;;;;4971982;28;19953;-87
2022/06/17 00:23:58;;;;;;;;;;;;;;;;;;4970254;28;19916;-87
2022/06/17 00:26:24;;;;;;;;;;;;;;;;;;4971570;28;19914;-87
2022/06/17 00:28:50;;;;;;;;;;;;;;;;;;4972661;28;20399;-87
2022/06/17 00:31:16;;;;;;;;;;;;;;;;;;4986704;28;19909;-87
2022/06/17 00:33:42;;;;;;;;;;;;;;;;;;4979724;28;19912;-87
2022/06/17 00:36:08;;;;;;;;;;;;;;;;;;4970960;28;19925;-87
2022/06/17 00:38:35;;;;;;;;;;;;;;;;;;4982364;28;20385;-87
2022/06/17 00:41:00;;;;;;;;;;;;;;;;;;4975321;28;20009;-87
2022/06/17 00:43:26;;;;;;;;;;;;;;;;;;4988655;28;20329;-87
2022/06/17 00:45:52;;;;;;;;;;;;;;;;;;4974781;28;19910;-87
2022/06/17 00:48:18;;;;;;;;;;;;;;;;;;4974455;28;19993;-87
2022/06/17 00:50:44;;;;;;;;;;;;;;;;;;4973905;28;19916;-88
2022/06/17 00:53:10;;;;;;;;;;;;;;;;;;4976165;28;19914;-88
2022/06/17 00:55:37;;;;;;;;;;;;;;;;;;4966873;28;20388;-88
2022/06/17 00:58:03;;;;;;;;;;;;;;;;;;4989072;28;20027;-89
2022/06/17 01:00:29;;;;;;;;;;;;;;;;;;4991091;28;20369;-88
2022/06/17 01:02:55;;;;;;;;;;;;;;;;;;4972817;28;19910;-88
2022/06/17 01:05:20;;;;;;;;;;;;;;;;;;4974361;28;19925;-88
2022/06/17 01:07:47;;;;;;;;;;;;;;;;;;4973256;28;19921;-87
2022/06/17 01:10:13;;;;;;;;;;;;;;;;;;4973504;28;19910;-87
2022/06/17 01:12:39;;;;;;;;;;;;;;;;;;4968244;28;20118;-87
2022/06/17 01:15:05;;;;;;;;;;;;;;;;;;4977731;28;19910;-87
2022/06/17 01:17:31;;;;;;;;;;;;;;;;;;4972043;28;20252;-86
2022/06/17 01:19:57;;;;;;;;;;;;;;;;;;4978628;28;19920;-88
2022/06/17 01:22:23;;;;;;;;;;;;;;;;;;4955637;28;19917;-87
2022/06/17 01:24:49;;;;;;;;;;;;;;;;;;4963838;28;20359;-87
2022/06/17 01:27:15;;;;;;;;;;;;;;;;;;4986867;28;19917;-87
2022/06/17 01:29:41;;;;;;;;;;;;;;;;;;4990614;28;20342;-88
2022/06/17 01:32:07;;;;;;;;;;;;;;;;;;4985444;28;19906;-87
2022/06/17 01:34:33;;;;;;;;;;;;;;;;;;4976004;28;20164;-87
2022/06/17 01:36:59;;;;;;;;;;;;;;;;;;4981477;28;19922;-87
2022/06/17 01:39:24;;;;;;;;;;;;;;;;;;4968270;28;20388;-87
2022/06/17 01:41:52;;;;;;;;;;;;;;;;;;4981178;28;19914;-87
2022/06/17 01:44:18;;;;;;;;;;;;;;;;;;4976317;28;19912;-87
2022/06/17 01:46:44;;;;;;;;;;;;;;;;;;4984602;28;19910;-87
2022/06/17 01:49:10;;;;;;;;;;;;;;;;;;4985724;28;19996;-88
2022/06/17 01:51:36;;;;;;;;;;;;;;;;;;4983631;28;19912;-88
2022/06/17 01:54:02;;;;;;;;;;;;;;;;;;4982239;28;19913;-87
2022/06/17 01:56:30;;;;;;;;;;;;;;;;;;4976914;28;19925;-87
2022/06/17 01:58:55;;;;;;;;;;;;;;;;;;4982810;28;20444;-87
2022/06/17 02:01:22;;;;;;;;;;;;;;;;;;4969330;28;19910;-87
2022/06/17 02:03:48;;;;;;;;;;;;;;;;;;4971789;28;19953;-87
2022/06/17 02:06:14;;;;;;;;;;;;;;;;;;4972942;28;20176;-88
2022/06/17 02:08:40;;;;;;;;;;;;;;;;;;4987436;28;19920;-87
2022/06/17 02:11:06;;;;;;;;;;;;;;;;;;4971776;28;19910;-87
2022/06/17 02:13:32;;;;;;;;;;;;;;;;;;4971062;28;19957;-87
2022/06/17 02:15:57;;;;;;;;;;;;;;;;;;4690630;28;8069128;-87
2022/06/17 02:18:23;;;;;;;;;;;;;;;;;;4984639;28;20173;-87
2022/06/17 02:20:49;;;;;;;;;;;;;;;;;;4973829;28;20005;-87
2022/06/17 02:23:15;;;;;;;;;;;;;;;;;;4971627;28;19917;-87
2022/06/17 02:25:41;;;;;;;;;;;;;;;;;;4985397;28;20338;-87
2022/06/17 02:28:07;;;;;;;;;;;;;;;;;;4971614;28;19914;-87
2022/06/17 02:30:33;;;;;;;;;;;;;;;;;;4990167;28;19917;-87
2022/06/17 02:32:59;;;;;;;;;;;;;;;;;;4972825;28;19925;-88
2022/06/17 02:35:25;;;;;;;;;;;;;;;;;;4984565;28;19914;-88
2022/06/17 02:37:51;;;;;;;;;;;;;;;;;;4975560;28;19922;-87
2022/06/17 02:40:17;;;;;;;;;;;;;;;;;;4973055;28;19906;-87
2022/06/17 02:42:43;;;;;;;;;;;;;;;;;;4972706;28;19921;-88
2022/06/17 02:45:09;;;;;;;;;;;;;;;;;;4983354;28;19985;-87
2022/06/17 02:47:35;;;;;;;;;;;;;;;;;;4971763;28;19913;-87
2022/06/17 02:50:01;;;;;;;;;;;;;;;;;;4972076;28;19924;-87
2022/06/17 02:52:27;;;;;;;;;;;;;;;;;;4974731;28;20289;-87
2022/06/17 02:54:53;;;;;;;;;;;;;;;;;;4975921;28;20468;-88
2022/06/17 02:57:19;;;;;;;;;;;;;;;;;;4968144;28;19918;-87
2022/06/17 02:59:48;;;;;;;;;;;;;;;;;;4975121;28;20281;-87
2022/06/17 03:02:14;;;;;;;;;;;;;;;;;;4984268;28;19933;-87
2022/06/17 03:04:40;;;;;;;;;;;;;;;;;;4971489;28;19964;-87
2022/06/17 03:07:07;;;;;;;;;;;;;;;;;;4980599;28;20391;-87
2022/06/17 03:09:33;;;;;;;;;;;;;;;;;;4972172;28;20025;-87
2022/06/17 03:11:59;;;;;;;;;;;;;;;;;;4968920;28;19996;-88
2022/06/17 03:14:25;;;;;;;;;;;;;;;;;;4971300;28;20460;-86
2022/06/17 03:16:51;;;;;;;;;;;;;;;;;;4973883;28;19925;-87
2022/06/17 03:19:17;;;;;;;;;;;;;;;;;;4981291;28;19971;-87
2022/06/17 03:21:43;;;;;;;;;;;;;;;;;;4970432;28;19914;-87
2022/06/17 03:24:11;;;;;;;;;;;;;;;;;;4971700;28;20313;-88
2022/06/17 03:26:37;;;;;;;;;;;;;;;;;;4970409;28;19972;-87
2022/06/17 03:29:03;;;;;;;;;;;;;;;;;;4989062;28;19906;-87
2022/06/17 03:31:29;;;;;;;;;;;;;;;;;;4972616;28;19940;-87
2022/06/17 03:33:55;;;;;;;;;;;;;;;;;;4973478;28;20343;-87
2022/06/17 03:36:21;;;;;;;;;;;;;;;;;;4978127;28;19917;-87
2022/06/17 03:38:49;;;;;;;;;;;;;;;;;;4971211;28;20366;-87
2022/06/17 03:41:15;;;;;;;;;;;;;;;;;;4974131;28;20214;-87
2022/06/17 03:43:41;;;;;;;;;;;;;;;;;;4971607;28;19947;-88
2022/06/17 03:46:07;;;;;;;;;;;;;;;;;;4973289;28;20406;-87
2022/06/17 03:48:33;;;;;;;;;;;;;;;;;;4977984;28;19918;-88
2022/06/17 03:50:58;;;;;;;;;;;;;;;;;;4973329;28;20503;-87
2022/06/17 03:53:27;;;;;;;;;;;;;;;;;;4984805;28;20329;-87
2022/06/17 03:55:53;;;;;;;;;;;;;;;;;;4973666;28;20305;-88
2022/06/17 03:58:19;;;;;;;;;;;;;;;;;;4973308;28;19984;-87
2022/06/17 04:00:52;;;;;;;;;;;;;;;;;;4986656;28;19910;-87
2022/06/17 04:03:18;;;;;;;;;;;;;;;;;;4973826;28;19976;-87
2022/06/17 04:05:44;;;;;;;;;;;;;;;;;;4975181;28;19984;-87
2022/06/17 04:08:10;;;;;;;;;;;;;;;;;;4966606;28;19910;-88
2022/06/17 04:10:36;;;;;;;;;;;;;;;;;;4981633;28;19922;-88
2022/06/17 04:13:02;;;;;;;;;;;;;;;;;;4970061;28;19905;-87
2022/06/17 04:15:28;;;;;;;;;;;;;;;;;;4971615;28;20353;-88
2022/06/17 04:17:54;;;;;;;;;;;;;;;;;;4972852;28;19917;-87
2022/06/17 04:20:20;;;;;;;;;;;;;;;;;;4971122;28;20392;-87
2022/06/17 04:22:45;;;;;;;;;;;;;;;;;;4967615;28;19909;-87
2022/06/17 04:25:11;;;;;;;;;;;;;;;;;;4965015;28;20008;-87
2022/06/17 04:27:56;;;;;;;;;;;;;;;;;;4982352;28;20013;-86
2022/06/17 04:30:22;;;;;;;;;;;;;;;;;;4970940;28;19956;-87
2022/06/17 04:32:47;;;;;;;;;;;;;;;;;;4983190;28;19957;-88
2022/06/17 04:35:13;;;;;;;;;;;;;;;;;;4988211;28;19913;-87
2022/06/17 04:37:39;;;;;;;;;;;;;;;;;;4983533;28;19972;-87
2022/06/17 04:40:05;;;;;;;;;;;;;;;;;;4974421;28;19918;-88
2022/06/17 04:42:31;;;;;;;;;;;;;;;;;;4971616;28;20321;-87
2022/06/17 04:44:57;;;;;;;;;;;;;;;;;;4977951;28;19942;-87
2022/06/17 04:47:23;;;;;;;;;;;;;;;;;;4981098;28;19950;-87
2022/06/17 04:49:49;;;;;;;;;;;;;;;;;;4979424;28;19910;-87
2022/06/17 04:52:15;;;;;;;;;;;;;;;;;;4979789;28;20060;-88
2022/06/17 04:54:41;;;;;;;;;;;;;;;;;;4975004;28;20151;-87
2022/06/17 04:57:07;;;;;;;;;;;;;;;;;;4977976;28;20018;-87
2022/06/17 04:59:33;;;;;;;;;;;;;;;;;;4980773;28;19910;-87
2022/06/17 05:01:59;;;;;;;;;;;;;;;;;;4977131;28;20305;-88
2022/06/17 05:04:25;;;;;;;;;;;;;;;;;;4986772;28;20385;-87
2022/06/17 05:06:50;;;;;;;;;;;;;;;;;;4974778;28;19961;-88
2022/06/17 05:09:16;;;;;;;;;;;;;;;;;;4970706;28;20004;-88
2022/06/17 05:11:42;;;;;;;;;;;;;;;;;;4988390;28;19909;-87
2022/06/17 05:14:08;;;;;;;;;;;;;;;;;;4987918;28;20275;-87
2022/06/17 05:16:34;;;;;;;;;;;;;;;;;;4971256;28;19925;-88
2022/06/17 05:19:00;;;;;;;;;;;;;;;;;;4965876;28;19910;-86
2022/06/17 05:21:26;;;;;;;;;;;;;;;;;;4969906;28;19905;-87
2022/06/17 05:23:52;;;;;;;;;;;;;;;;;;4975764;28;19968;-88
2022/06/17 05:26:18;;;;;;;;;;;;;;;;;;4968489;28;19965;-91
2022/06/17 05:28:44;;;;;;;;;;;;;;;;;;4983630;28;19906;-94
2022/06/17 05:31:10;;;;;;;;;;;;;;;;;;4986332;28;19918;-91
2022/06/17 05:33:37;;;;;;;;;;;;;;;;;;4973470;28;19910;-91
2022/06/17 05:36:02;;;;;;;;;;;;;;;;;;4979525;28;20286;-92
2022/06/17 05:38:30;;;;;;;;;;;;;;;;;;4975766;28;20379;-90
2022/06/17 05:40:56;;;;;;;;;;;;;;;;;;4974327;28;19914;-92
2022/06/17 05:43:22;;;;;;;;;;;;;;;;;;4991812;28;19920;-93
2022/06/17 05:45:48;;;;;;;;;;;;;;;;;;4974930;28;19917;-93
2022/06/17 05:48:14;;;;;;;;;;;;;;;;;;4975585;28;20373;-91
2022/06/17 05:50:40;;;;;;;;;;;;;;;;;;4978335;28;19917;-93
2022/06/17 05:53:06;;;;;;;;;;;;;;;;;;4977064;28;19917;-93
2022/06/17 05:55:32;;;;;;;;;;;;;;;;;;4977759;28;19909;-93
2022/06/17 05:57:58;;;;;;;;;;;;;;;;;;4971047;28;20358;-93
2022/06/17 06:00:24;;;;;;;;;;;;;;;;;;4972698;28;19952;-92
2022/06/17 06:02:50;;;;;;;;;;;;;;;;;;4968805;28;19910;-93
2022/06/17 06:05:16;;;;;;;;;;;;;;;;;;4972998;28;20388;-90
2022/06/17 06:07:42;;;;;;;;;;;;;;;;;;4976827;28;19906;-92
2022/06/17 06:10:08;;;;;;;;;;;;;;;;;;4980494;28;19925;-93
2022/06/17 06:15:19;;;;;;;;;;;;;;;;;;5002991;28;19921;-90
2022/06/17 06:17:45;;;;;;;;;;;;;;;;;;4984809;28;19922;-92
2022/06/17 06:20:11;;;;;;;;;;;;;;;;;;4984957;28;19906;-92
2022/06/17 06:22:37;;;;;;;;;;;;;;;;;;4996146;28;19920;-91
2022/06/17 06:25:03;;;;;;;;;;;;;;;;;;4977586;28;19980;-93
2022/06/17 06:27:28;;;;;;;;;;;;;;;;;;4983854;28;19910;-93
2022/06/17 06:29:54;;;;;;;;;;;;;;;;;;4980716;28;20361;-91
2022/06/17 06:32:21;;;;;;;;;;;;;;;;;;4980059;28;19924;-92
2022/06/17 06:34:47;;;;;;;;;;;;;;;;;;4979992;28;20293;-93
2022/06/17 06:37:13;;;;;;;;;;;;;;;;;;4989236;28;20963;-93
2022/06/17 06:39:39;;;;;;;;;;;;;;;;;;4985136;28;19905;-92
2022/06/17 06:42:05;;;;;;;;;;;;;;;;;;4965893;28;19918;-93
2022/06/17 06:44:31;;;;;;;;;;;;;;;;;;4978612;28;19916;-93
2022/06/17 06:46:57;;;;;;;;;;;;;;;;;;4974472;28;19951;-90
2022/06/17 06:49:23;;;;;;;;;;;;;;;;;;4976881;28;19926;-94
2022/06/17 06:51:48;;;;;;;;;;;;;;;;;;4989404;28;19916;-92
2022/06/17 06:54:14;;;;;;;;;;;;;;;;;;4976694;28;19964;-92
2022/06/17 06:56:40;;;;;;;;;;;;;;;;;;4975531;28;20298;-92
2022/06/17 06:59:06;;;;;;;;;;;;;;;;;;4969902;28;19941;-92
2022/06/17 07:01:32;;;;;;;;;;;;;;;;;;4976271;28;19917;-92
2022/06/17 07:03:58;;;;;;;;;;;;;;;;;;4975349;28;19914;-89
2022/06/17 07:06:24;;;;;;;;;;;;;;;;;;4975883;28;19961;-92
2022/06/17 07:08:50;;;;;;;;;;;;;;;;;;4975859;28;19996;-91
2022/06/17 07:11:16;;;;;;;;;;;;;;;;;;4972805;28;19918;-92
2022/06/17 07:13:42;;;;;;;;;;;;;;;;;;4975739;28;19945;-92
2022/06/17 07:16:08;;;;;;;;;;;;;;;;;;4972688;28;20418;-93
2022/06/17 07:18:34;;;;;;;;;;;;;;;;;;4980351;28;20448;-94
2022/06/17 07:21:00;;;;;;;;;;;;;;;;;;4975729;28;19910;-93
2022/06/17 07:23:29;;;;;;;;;;;;;;;;;;4977189;28;19909;-93
2022/06/17 07:25:55;;;;;;;;;;;;;;;;;;4990190;28;20451;-93
2022/06/17 07:28:21;;;;;;;;;;;;;;;;;;4985519;28;19914;-92
2022/06/17 07:30:47;;;;;;;;;;;;;;;;;;4977747;28;20124;-92
2022/06/17 07:33:13;;;;;;;;;;;;;;;;;;4991369;28;20143;-92
2022/06/17 07:35:39;;;;;;;;;;;;;;;;;;4980673;28;20128;-92
2022/06/17 07:40:50;;;;;;;;;;;;;;;;;;4991344;28;20048;-92
2022/06/17 07:43:16;;;;;;;;;;;;;;;;;;4997508;28;19910;-91
2022/06/17 07:45:42;;;;;;;;;;;;;;;;;;4980079;28;19929;-94
2022/06/17 07:48:08;;;;;;;;;;;;;;;;;;4987763;28;20358;-92
2022/06/17 07:50:34;;;;;;;;;;;;;;;;;;4970514;28;19986;-93
2022/06/17 07:53:00;;;;;;;;;;;;;;;;;;4988353;28;19949;-94
2022/06/17 07:55:26;;;;;;;;;;;;;;;;;;4975789;28;19917;-94
2022/06/17 07:57:52;;;;;;;;;;;;;;;;;;4974587;28;19914;-93
2022/06/17 08:00:18;;;;;;;;;;;;;;;;;;4973944;28;20329;-91
2022/06/17 08:02:43;;;;;;;;;;;;;;;;;;4973366;28;20432;-94
2022/06/17 08:05:09;;;;;;;;;;;;;;;;;;4970982;28;19914;-93
2022/06/17 08:07:35;;;;;;;;;;;;;;;;;;4984851;28;19922;-92
2022/06/17 08:10:01;;;;;;;;;;;;;;;;;;4974745;28;19922;-94
2022/06/17 08:12:27;;;;;;;;;;;;;;;;;;4987892;28;19906;-93
2022/06/17 08:14:54;;;;;;;;;;;;;;;;;;4966592;28;19925;-93
2022/06/17 08:17:20;;;;;;;;;;;;;;;;;;4971329;28;20196;-91
2022/06/17 08:19:46;;;;;;;;;;;;;;;;;;4972321;28;19921;-92
2022/06/17 08:22:12;;;;;;;;;;;;;;;;;;4974777;28;20358;-93
2022/06/17 08:24:38;;;;;;;;;;;;;;;;;;4987666;28;20013;-94
2022/06/17 08:27:04;;;;;;;;;;;;;;;;;;4978262;28;19917;-93
2022/06/17 08:29:30;;;;;;;;;;;;;;;;;;4969358;28;19971;-93
2022/06/17 08:32:44;;;;;;;;;;;;;;;;;;4976544;28;20001;-91
2022/06/17 08:34:42;;;;;;;;;;;;;;;;;;4985065;28;19914;-93
2022/06/17 08:37:08;;;;;;;;;;;;;;;;;;4971159;28;20420;-95
2022/06/17 08:39:34;;;;;;;;;;;;;;;;;;4970205;28;20393;-93
2022/06/17 08:42:00;;;;;;;;;;;;;;;;;;4974975;28;19916;-89
2022/06/17 08:44:28;;;;;;;;;;;;;;;;;;4975766;28;20266;-88
2022/06/17 08:46:54;;;;;;;;;;;;;;;;;;4971774;28;20408;-88
2022/06/17 08:49:20;;;;;;;;;;;;;;;;;;4978658;28;19910;-88
2022/06/17 08:51:46;;;;;;;;;;;;;;;;;;4965561;28;19925;-88
2022/06/17 08:54:12;;;;;;;;;;;;;;;;;;4970006;28;19917;-88
2022/06/17 08:56:38;;;;;;;;;;;;;;;;;;4972327;28;20274;-87
2022/06/17 08:59:04;;;;;;;;;;;;;;;;;;4972707;28;19910;-88
2022/06/17 09:01:30;;;;;;;;;;;;;;;;;;4975644;28;19913;-88
2022/06/17 09:03:56;;;;;;;;;;;;;;;;;;4973495;28;19913;-87
2022/06/17 09:06:22;;;;;;;;;;;;;;;;;;4975533;28;20040;-88
2022/06/17 09:08:48;;;;;;;;;;;;;;;;;;4988542;28;19920;-87
2022/06/17 09:11:13;;;;;;;;;;;;;;;;;;4975642;28;19909;-87
2022/06/17 09:13:39;;;;;;;;;;;;;;;;;;4988344;28;19988;-88
2022/06/17 09:16:05;;;;;;;;;;;;;;;;;;4971686;28;19918;-88
2022/06/17 09:18:31;;;;;;;;;;;;;;;;;;4977573;28;19976;-88
2022/06/17 09:21:03;;;;;;;;;;;;;;;;;;4976159;28;19909;-88
2022/06/17 09:23:29;;;;;;;;;;;;;;;;;;4968323;28;20353;-88
2022/06/17 09:25:55;;;;;;;;;;;;;;;;;;4976017;28;20012;-88
2022/06/17 09:28:21;;;;;;;;;;;;;;;;;;4976509;28;19988;-86
2022/06/17 09:30:47;;;;;;;;;;;;;;;;;;4972931;28;20033;-87
2022/06/17 09:33:13;;;;;;;;;;;;;;;;;;4986400;28;19917;-88
2022/06/17 09:35:39;;;;;;;;;;;;;;;;;;4971392;28;19925;-88
2022/06/17 09:38:05;;;;;;;;;;;;;;;;;;4975123;28;19948;-87
2022/06/17 09:40:31;;;;;;;;;;;;;;;;;;4991344;28;19953;-87
2022/06/17 09:42:57;;;;;;;;;;;;;;;;;;4975720;28;19909;-87
2022/06/17 09:45:25;;;;;;;;;;;;;;;;;;4965340;28;19922;-88
2022/06/17 09:47:51;;;;;;;;;;;;;;;;;;4976413;28;20190;-89
2022/06/17 09:50:17;;;;;;;;;;;;;;;;;;4988376;28;20342;-88
2022/06/17 09:52:43;;;;;;;;;;;;;;;;;;4976503;28;19933;-87
2022/06/17 09:55:09;;;;;;;;;;;;;;;;;;4989544;28;19913;-87
2022/06/17 09:57:35;;;;;;;;;;;;;;;;;;4972851;28;19989;-88
2022/06/17 10:00:01;;;;;;;;;;;;;;;;;;4970325;28;19957;-88
2022/06/17 10:02:27;;;;;;;;;;;;;;;;;;4971285;28;20400;-88
2022/06/17 10:04:53;;;;;;;;;;;;;;;;;;4974731;28;19917;-88
2022/06/17 10:07:20;;;;;;;;;;;;;;;;;;4976886;28;20297;-89
2022/06/17 10:09:46;;;;;;;;;;;;;;;;;;4972031;28;19945;-87
2022/06/17 10:12:12;;;;;;;;;;;;;;;;;;4968548;28;19914;-88
2022/06/17 10:14:38;;;;;;;;;;;;;;;;;;4971886;28;20308;-89
2022/06/17 10:19:50;;;;;;;;;;;;;;;;;;4987387;28;21907;-88
2022/06/17 10:22:16;;;;;;;;;;;;;;;;;;4973703;28;19914;-87
2022/06/17 10:24:42;;;;;;;;;;;;;;;;;;4971321;28;19914;-88
2022/06/17 10:27:08;;;;;;;;;;;;;;;;;;4972926;28;20385;-88
2022/06/17 10:29:34;;;;;;;;;;;;;;;;;;4973010;28;20016;-89
2022/06/17 10:32:00;;;;;;;;;;;;;;;;;;4972921;28;19993;-87
2022/06/17 10:34:27;;;;;;;;;;;;;;;;;;4971229;28;19910;-88
2022/06/17 10:36:54;;;;;;;;;;;;;;;;;;4969735;28;19929;-88
2022/06/17 10:39:20;;;;;;;;;;;;;;;;;;4970043;28;19910;-88
2022/06/17 10:41:46;;;;;;;;;;;;;;;;;;4973465;28;19910;-88
2022/06/17 10:44:12;;;;;;;;;;;;;;;;;;4986412;28;19925;-87
2022/06/17 10:46:39;;;;;;;;;;;;;;;;;;4968348;28;19940;-88
2022/06/17 10:49:05;;;;;;;;;;;;;;;;;;4973919;28;21049;-87
2022/06/17 10:51:30;;;;;;;;;;;;;;;;;;4989348;28;19928;-88
2022/06/17 10:53:56;;;;;;;;;;;;;;;;;;4971978;28;19920;-89
2022/06/17 10:56:22;;;;;;;;;;;;;;;;;;4973895;28;19921;-88
2022/06/17 10:58:48;;;;;;;;;;;;;;;;;;4969138;28;19921;-89
2022/06/17 11:01:15;;;;;;;;;;;;;;;;;;4984591;28;19910;-88
2022/06/17 11:03:41;;;;;;;;;;;;;;;;;;4969579;28;19910;-88
2022/06/17 11:06:07;;;;;;;;;;;;;;;;;;4985705;28;19965;-88
2022/06/17 11:08:33;;;;;;;;;;;;;;;;;;4974616;28;19928;-87
2022/06/17 11:12:02;;;;;;;;;;;;;;;;;;4967276;28;19957;-88
2022/06/17 11:13:45;;;;;;;;;;;;;;;;;;4987575;28;19906;-88
2022/06/17 11:16:11;;;;;;;;;;;;;;;;;;4971238;28;19928;-87
2022/06/17 11:18:38;;;;;;;;;;;;;;;;;;4968406;28;20000;-88
2022/06/17 11:21:04;;;;;;;;;;;;;;;;;;4975195;28;19914;-89
2022/06/17 11:23:30;;;;;;;;;;;;;;;;;;4970044;28;20360;-87
2022/06/17 11:25:56;;;;;;;;;;;;;;;;;;4973771;28;20020;-88
2022/06/17 11:28:25;;;;;;;;;;;;;;;;;;4973904;28;19914;-88
2022/06/17 11:30:51;;;;;;;;;;;;;;;;;;4990562;28;19909;-90
2022/06/17 11:33:17;;;;;;;;;;;;;;;;;;4974582;28;20360;-86
2022/06/17 11:35:43;;;;;;;;;;;;;;;;;;4986408;28;19917;-89
2022/06/17 11:38:09;;;;;;;;;;;;;;;;;;4970999;28;19906;-87
2022/06/17 11:40:36;;;;;;;;;;;;;;;;;;4983360;28;20278;-88
2022/06/17 11:43:03;;;;;;;;;;;;;;;;;;4967911;28;21004;-88
2022/06/17 11:45:32;;;;;;;;;;;;;;;;;;4975621;28;20341;-89
2022/06/17 11:47:59;;;;;;;;;;;;;;;;;;4989127;28;20483;-88
2022/06/17 11:50:25;;;;;;;;;;;;;;;;;;4978500;28;20039;-88
2022/06/17 11:52:50;;;;;;;;;;;;;;;;;;4969612;28;19977;-88
2022/06/17 11:55:16;;;;;;;;;;;;;;;;;;4974540;28;19916;-89
2022/06/17 11:57:42;;;;;;;;;;;;;;;;;;4990444;28;20051;-89
2022/06/17 12:00:08;;;;;;;;;;;;;;;;;;4986278;28;20241;-88
2022/06/17 12:02:34;;;;;;;;;;;;;;;;;;4972715;28;19918;-89
2022/06/17 12:05:00;;;;;;;;;;;;;;;;;;4969162;28;19965;-90
2022/06/17 12:07:26;;;;;;;;;;;;;;;;;;4970963;28;19917;-88
2022/06/17 12:09:52;;;;;;;;;;;;;;;;;;4981051;28;20553;-89
2022/06/17 12:12:18;;;;;;;;;;;;;;;;;;4969608;28;20326;-88
2022/06/17 12:14:44;;;;;;;;;;;;;;;;;;4967608;28;20182;-87
2022/06/17 12:17:10;;;;;;;;;;;;;;;;;;4987463;28;20263;-88
2022/06/17 12:19:35;;;;;;;;;;;;;;;;;;4987015;28;19928;-88
2022/06/17 12:22:01;;;;;;;;;;;;;;;;;;4967973;28;19914;-89
2022/06/17 12:24:27;;;;;;;;;;;;;;;;;;4972071;28;19960;-88
2022/06/17 12:26:53;;;;;;;;;;;;;;;;;;4989979;28;19910;-90
2022/06/17 12:29:19;;;;;;;;;;;;;;;;;;4975284;28;20424;-90
2022/06/17 12:31:45;;;;;;;;;;;;;;;;;;4973523;28;20062;-87
2022/06/17 12:34:11;;;;;;;;;;;;;;;;;;4974529;28;20431;-88
2022/06/17 12:36:37;;;;;;;;;;;;;;;;;;4976489;28;19909;-88
2022/06/17 12:39:03;;;;;;;;;;;;;;;;;;4973261;28;19906;-88
2022/06/17 12:41:29;;;;;;;;;;;;;;;;;;4972890;28;20277;-88
2022/06/17 12:43:55;;;;;;;;;;;;;;;;;;4993257;28;19909;-87
2022/06/17 12:46:20;;;;;;;;;;;;;;;;;;4974086;28;19913;-88
2022/06/17 12:48:49;;;;;;;;;;;;;;;;;;4979235;28;19917;-89
2022/06/17 12:53:59;;;;;;;;;;;;;;;;;;4991553;28;19930;-89
2022/06/17 12:56:25;;;;;;;;;;;;;;;;;;4975665;28;19909;-88
2022/06/17 12:58:51;;;;;;;;;;;;;;;;;;4974809;28;19913;-88
2022/06/17 13:01:17;;;;;;;;;;;;;;;;;;4964144;28;19964;-90
2022/06/17 13:03:43;;;;;;;;;;;;;;;;;;4986948;28;19921;-88
2022/06/17 13:06:09;;;;;;;;;;;;;;;;;;4973014;28;20016;-88
2022/06/17 13:08:35;;;;;;;;;;;;;;;;;;4972704;28;20444;-88
2022/06/17 13:11:01;;;;;;;;;;;;;;;;;;4967860;28;19920;-89
2022/06/17 13:13:27;;;;;;;;;;;;;;;;;;4991120;28;19917;-88
2022/06/17 13:15:53;;;;;;;;;;;;;;;;;;4972305;28;20387;-89
2022/06/17 13:18:19;;;;;;;;;;;;;;;;;;4976711;28;19936;-88
2022/06/17 13:20:45;;;;;;;;;;;;;;;;;;4979591;28;19914;-88
2022/06/17 13:23:11;;;;;;;;;;;;;;;;;;4965111;28;19913;-87
2022/06/17 13:25:37;;;;;;;;;;;;;;;;;;4975501;28;19913;-87
2022/06/17 13:28:03;;;;;;;;;;;;;;;;;;4987458;28;19917;-88
2022/06/17 13:30:30;;;;;;;;;;;;;;;;;;4982474;28;19963;-88
2022/06/17 13:32:56;;;;;;;;;;;;;;;;;;4983341;28;19927;-88
2022/06/17 13:35:22;;;;;;;;;;;;;;;;;;4979933;28;19918;-87
2022/06/17 13:37:48;;;;;;;;;;;;;;;;;;4969662;28;19914;-87
2022/06/17 13:40:14;;;;;;;;;;;;;;;;;;4980799;28;20405;-87
2022/06/17 13:42:40;;;;;;;;;;;;;;;;;;4982413;28;19910;-87
2022/06/17 13:45:06;;;;;;;;;;;;;;;;;;4972356;28;19959;-88
2022/06/17 13:47:33;;;;;;;;;;;;;;;;;;4977309;28;19920;-87
2022/06/17 13:49:59;;;;;;;;;;;;;;;;;;4987428;28;20207;-87
2022/06/17 13:52:25;;;;;;;;;;;;;;;;;;4983498;28;19909;-87
2022/06/17 13:54:51;;;;;;;;;;;;;;;;;;4980199;28;19909;-88
2022/06/17 13:57:17;;;;;;;;;;;;;;;;;;4986332;28;20016;-88
2022/06/17 13:59:43;;;;;;;;;;;;;;;;;;4974183;28;19924;-89
2022/06/17 14:02:09;;;;;;;;;;;;;;;;;;4990252;28;20377;-88
2022/06/17 14:04:35;;;;;;;;;;;;;;;;;;4995077;28;19914;-88
2022/06/17 14:07:01;;;;;;;;;;;;;;;;;;4989049;28;19913;-89
2022/06/17 14:09:26;;;;;;;;;;;;;;;;;;4970435;28;19949;-88
2022/06/17 14:11:52;;;;;;;;;;;;;;;;;;4985702;28;19917;-88
2022/06/17 14:14:18;;;;;;;;;;;;;;;;;;4981438;28;19960;-88
2022/06/17 14:16:44;;;;;;;;;;;;;;;;;;4969175;28;20342;-89
2022/06/17 14:19:10;;;;;;;;;;;;;;;;;;4973339;28;19926;-89
2022/06/17 14:21:36;;;;;;;;;;;;;;;;;;4971793;28;20642;-89
2022/06/17 14:24:02;;;;;;;;;;;;;;;;;;4971848;28;19913;-88
2022/06/17 14:26:28;;;;;;;;;;;;;;;;;;4983478;28;19917;-89
2022/06/17 14:28:54;;;;;;;;;;;;;;;;;;4973179;28;20318;-88
2022/06/17 14:31:20;;;;;;;;;;;;;;;;;;4980085;28;20438;-90
2022/06/17 14:33:46;;;;;;;;;;;;;;;;;;4976532;28;19905;-87
2022/06/17 14:36:12;;;;;;;;;;;;;;;;;;4970708;28;19948;-88
2022/06/17 14:38:40;;;;;;;;;;;;;;;;;;4970683;28;19913;-88
2022/06/17 14:43:51;;;;;;;;;;;;;;;;;;4984123;28;19920;-88
2022/06/17 14:46:17;;;;;;;;;;;;;;;;;;4970095;28;19910;-89
2022/06/17 14:48:45;;;;;;;;;;;;;;;;;;4971865;28;19920;-88
2022/06/17 14:51:11;;;;;;;;;;;;;;;;;;4983144;28;19941;-88
2022/06/17 14:53:37;;;;;;;;;;;;;;;;;;4978032;28;19918;-89
2022/06/17 14:56:03;;;;;;;;;;;;;;;;;;4965556;28;19952;-89
2022/06/17 14:58:29;;;;;;;;;;;;;;;;;;4973073;28;19938;-89
2022/06/17 15:00:56;;;;;;;;;;;;;;;;;;4971300;28;19914;-89
2022/06/17 15:03:22;;;;;;;;;;;;;;;;;;4975091;28;19921;-88
2022/06/17 15:05:48;;;;;;;;;;;;;;;;;;4969626;28;19913;-88
2022/06/17 15:08:13;;;;;;;;;;;;;;;;;;4972305;28;19910;-89
2022/06/17 15:10:40;;;;;;;;;;;;;;;;;;4973495;28;19936;-89
2022/06/17 15:13:06;;;;;;;;;;;;;;;;;;4986725;28;20015;-89
2022/06/17 15:15:39;;;;;;;;;;;;;;;;;;4970246;28;20056;-89
2022/06/17 15:18:05;;;;;;;;;;;;;;;;;;4972059;28;19964;-87
2022/06/17 15:20:31;;;;;;;;;;;;;;;;;;4969688;28;20446;-89
2022/06/17 15:22:57;;;;;;;;;;;;;;;;;;4949044;28;19961;-88
2022/06/17 15:25:24;;;;;;;;;;;;;;;;;;4959708;28;19917;-89
2022/06/17 15:27:49;;;;;;;;;;;;;;;;;;4952853;28;20376;-89
2022/06/17 15:30:15;;;;;;;;;;;;;;;;;;4954144;28;19969;-88
2022/06/17 15:32:41;;;;;;;;;;;;;;;;;;4965516;28;19906;-88
2022/06/17 15:35:07;;;;;;;;;;;;;;;;;;4948088;28;19917;-88
2022/06/17 15:37:36;;;;;;;;;;;;;;;;;;4954743;28;19944;-89
2022/06/17 15:40:02;;;;;;;;;;;;;;;;;;4951335;28;20416;-88
2022/06/17 15:42:28;;;;;;;;;;;;;;;;;;4958319;28;20009;-88
2022/06/17 15:44:54;;;;;;;;;;;;;;;;;;4951761;28;20410;-88
2022/06/17 15:47:20;;;;;;;;;;;;;;;;;;4947785;28;19912;-89
2022/06/17 15:49:46;;;;;;;;;;;;;;;;;;4964031;28;19933;-88
2022/06/17 15:52:12;;;;;;;;;;;;;;;;;;4960478;28;20516;-88
2022/06/17 15:54:38;;;;;;;;;;;;;;;;;;4970408;28;19914;-89
2022/06/17 15:57:04;;;;;;;;;;;;;;;;;;4966576;28;19964;-88
2022/06/17 15:59:30;;;;;;;;;;;;;;;;;;4960522;28;19906;-88
2022/06/17 16:01:55;;;;;;;;;;;;;;;;;;4946137;28;19918;-88
2022/06/17 16:04:21;;;;;;;;;;;;;;;;;;4950050;28;19954;-88
2022/06/17 16:06:47;;;;;;;;;;;;;;;;;;4952653;28;19914;-88
2022/06/17 16:09:13;;;;;;;;;;;;;;;;;;4953036;28;19918;-96
2022/06/17 16:11:39;;;;;;;;;;;;;;;;;;4970750;28;19977;-94
2022/06/17 16:14:05;;;;;;;;;;;;;;;;;;4956273;28;19921;-93
2022/06/17 16:16:31;;;;;;;;;;;;;;;;;;4951570;28;19953;-94
2022/06/17 16:18:57;;;;;;;;;;;;;;;;;;4972892;28;20358;-92
2022/06/17 16:21:23;;;;;;;;;;;;;;;;;;4973999;28;20495;-94
2022/06/17 16:23:48;;;;;;;;;;;;;;;;;;4975567;28;20309;-94
2022/06/17 16:26:14;;;;;;;;;;;;;;;;;;4973305;28;20304;-92
2022/06/17 16:28:40;;;;;;;;;;;;;;;;;;4981353;28;19905;-94
2022/06/17 16:31:06;;;;;;;;;;;;;;;;;;5000360;28;19902;-93
2022/06/17 16:33:32;;;;;;;;;;;;;;;;;;4984921;28;20332;-93
2022/06/17 16:35:58;;;;;;;;;;;;;;;;;;4978123;28;19988;-94
2022/06/17 16:38:24;;;;;;;;;;;;;;;;;;4995227;28;19909;-94
2022/06/17 16:46:21;;;;;;;;;;;;;;;;;;4983798;28;20281;-93
2022/06/17 16:48:47;;;;;;;;;;;;;;;;;;4975413;28;20017;-94
2022/06/17 16:51:12;;;;;;;;;;;;;;;;;;4972220;28;20128;-95
2022/06/17 16:53:40;;;;;;;;;;;;;;;;;;4972167;28;20042;-92
2022/06/17 16:56:06;;;;;;;;;;;;;;;;;;4974092;28;19917;-93
2022/06/17 16:58:32;;;;;;;;;;;;;;;;;;4973391;28;19972;-93